sensor_id;sensor_type;location;lat;lon;timestamp;temperature;humidity
3690;DHT22;1861;50.240;8.596;2023-08-17T00:00:39;20.30;99.90
3690;DHT22;1861;50.240;8.596;2023-08-17T00:03:07;20.30;99.90
3690;DHT22;1861;50.240;8.596;2023-08-17T00:05:35;20.30;99.90
3690;DHT22;1861;50.240;8.596;2023-08-17T00:08:04;20.30;99.90
3690;DHT22;1861;50.240;8.596;2023-08-17T00:10:32;20.30;99.90
3690;DHT22;1861;50.240;8.596;2023-08-17T00:13:00;20.20;99.90
3690;DHT22;1861;50.240;8.596;2023-08-17T00:15:32;20.10;99.90
3690;DHT22;1861;50.240;8.596;2023-08-17T00:18:00;20.10;99.90
3690;DHT22;1861;50.240;8.596;2023-08-17T00:20:28;20.10;99.90
3690;DHT22;1861;50.240;8.596;2023-08-17T00:22:56;20.10;99.90
3690;DHT22;1861;50.240;8.596;2023-08-17T00:25:25;20.10;99.90
3690;DHT22;1861;50.240;8.596;2023-08-17T00:27:53;20.10;99.90
3690;DHT22;1861;50.240;8.596;2023-08-17T00:30:21;20.20;99.90
3690;DHT22;1861;50.240;8.596;2023-08-17T00:32:50;20.10;99.90
3690;DHT22;1861;50.240;8.596;2023-08-17T00:35:19;20.10;99.90
3690;DHT22;1861;50.240;8.596;2023-08-17T00:37:47;20.10;99.90
3690;DHT22;1861;50.240;8.596;2023-08-17T00:40:15;20.10;99.90
3690;DHT22;1861;50.240;8.596;2023-08-17T00:42:43;20.10;99.90
3690;DHT22;1861;50.240;8.596;2023-08-17T00:45:11;20.10;99.90
3690;DHT22;1861;50.240;8.596;2023-08-17T00:47:41;20.10;99.90
3690;DHT22;1861;50.240;8.596;2023-08-17T00:50:11;20.00;99.90
3690;DHT22;1861;50.240;8.596;2023-08-17T00:52:40;20.00;99.90
3690;DHT22;1861;50.240;8.596;2023-08-17T00:55:09;20.00;99.90
3690;DHT22;1861;50.240;8.596;2023-08-17T00:57:40;20.00;99.90
3690;DHT22;1861;50.240;8.596;2023-08-17T01:00:09;20.00;99.90
3690;DHT22;1861;50.240;8.596;2023-08-17T01:02:38;20.00;99.90
3690;DHT22;1861;50.240;8.596;2023-08-17T01:05:07;20.00;99.90
3690;DHT22;1861;50.240;8.596;2023-08-17T01:07:37;20.00;99.90
3690;DHT22;1861;50.240;8.596;2023-08-17T01:10:08;20.00;99.90
3690;DHT22;1861;50.240;8.596;2023-08-17T01:12:42;20.00;99.90
3690;DHT22;1861;50.240;8.596;2023-08-17T01:15:15;19.90;99.90
3690;DHT22;1861;50.240;8.596;2023-08-17T01:17:51;19.90;99.90
3690;DHT22;1861;50.240;8.596;2023-08-17T01:20:22;19.90;99.90
3690;DHT22;1861;50.240;8.596;2023-08-17T01:22:54;19.90;99.90
3690;DHT22;1861;50.240;8.596;2023-08-17T01:25:25;19.90;99.90
3690;DHT22;1861;50.240;8.596;2023-08-17T01:27:54;19.90;99.90
3690;DHT22;1861;50.240;8.596;2023-08-17T01:30:22;19.90;99.90
3690;DHT22;1861;50.240;8.596;2023-08-17T01:32:53;19.90;99.90
3690;DHT22;1861;50.240;8.596;2023-08-17T01:35:28;19.80;99.90
3690;DHT22;1861;50.240;8.596;2023-08-17T01:37:59;19.90;99.90
3690;DHT22;1861;50.240;8.596;2023-08-17T01:40:31;19.80;99.90
3690;DHT22;1861;50.240;8.596;2023-08-17T01:43:01;19.90;99.90
3690;DHT22;1861;50.240;8.596;2023-08-17T01:45:30;19.80;99.90
3690;DHT22;1861;50.240;8.596;2023-08-17T01:48:00;19.80;99.90
3690;DHT22;1861;50.240;8.596;2023-08-17T01:50:30;19.80;99.90
3690;DHT22;1861;50.240;8.596;2023-08-17T01:52:58;19.80;99.90
3690;DHT22;1861;50.240;8.596;2023-08-17T01:55:26;19.80;99.90
3690;DHT22;1861;50.240;8.596;2023-08-17T01:57:56;19.70;99.90
3690;DHT22;1861;50.240;8.596;2023-08-17T02:00:24;19.70;99.90
3690;DHT22;1861;50.240;8.596;2023-08-17T02:02:52;19.70;99.90
3690;DHT22;1861;50.240;8.596;2023-08-17T02:05:20;19.60;99.90
3690;DHT22;1861;50.240;8.596;2023-08-17T02:07:48;19.70;99.90
3690;DHT22;1861;50.240;8.596;2023-08-17T02:10:16;19.70;99.90
3690;DHT22;1861;50.240;8.596;2023-08-17T02:12:44;19.70;99.90
3690;DHT22;1861;50.240;8.596;2023-08-17T02:15:15;19.60;99.90
3690;DHT22;1861;50.240;8.596;2023-08-17T02:17:43;19.60;99.90
3690;DHT22;1861;50.240;8.596;2023-08-17T02:20:11;19.60;99.90
3690;DHT22;1861;50.240;8.596;2023-08-17T02:22:42;19.60;99.90
3690;DHT22;1861;50.240;8.596;2023-08-17T02:25:10;19.60;99.90
3690;DHT22;1861;50.240;8.596;2023-08-17T02:27:38;19.60;99.90
3690;DHT22;1861;50.240;8.596;2023-08-17T02:30:07;19.60;99.90
3690;DHT22;1861;50.240;8.596;2023-08-17T02:32:37;19.60;99.90
3690;DHT22;1861;50.240;8.596;2023-08-17T02:35:07;19.60;99.90
3690;DHT22;1861;50.240;8.596;2023-08-17T02:37:35;19.60;99.90
3690;DHT22;1861;50.240;8.596;2023-08-17T02:40:05;19.50;99.90
3690;DHT22;1861;50.240;8.596;2023-08-17T02:42:33;19.50;99.90
3690;DHT22;1861;50.240;8.596;2023-08-17T02:45:01;19.40;99.90
3690;DHT22;1861;50.240;8.596;2023-08-17T02:47:29;19.50;99.90
3690;DHT22;1861;50.240;8.596;2023-08-17T02:49:58;19.50;99.90
3690;DHT22;1861;50.240;8.596;2023-08-17T02:52:26;19.50;99.90
3690;DHT22;1861;50.240;8.596;2023-08-17T02:54:54;19.50;99.90
3690;DHT22;1861;50.240;8.596;2023-08-17T02:57:23;19.50;99.90
3690;DHT22;1861;50.240;8.596;2023-08-17T02:59:52;19.50;99.90
3690;DHT22;1861;50.240;8.596;2023-08-17T03:02:20;19.40;99.90
3690;DHT22;1861;50.240;8.596;2023-08-17T03:04:48;19.40;99.90
3690;DHT22;1861;50.240;8.596;2023-08-17T03:07:18;19.30;99.90
3690;DHT22;1861;50.240;8.596;2023-08-17T03:09:46;19.30;99.90
3690;DHT22;1861;50.240;8.596;2023-08-17T03:12:14;19.30;99.90
3690;DHT22;1861;50.240;8.596;2023-08-17T03:14:42;19.30;99.90
3690;DHT22;1861;50.240;8.596;2023-08-17T03:17:10;19.40;99.90
3690;DHT22;1861;50.240;8.596;2023-08-17T03:19:38;19.40;99.90
3690;DHT22;1861;50.240;8.596;2023-08-17T03:22:07;19.30;99.90
3690;DHT22;1861;50.240;8.596;2023-08-17T03:24:36;19.40;99.90
3690;DHT22;1861;50.240;8.596;2023-08-17T03:27:04;19.30;99.90
3690;DHT22;1861;50.240;8.596;2023-08-17T03:29:34;19.30;99.90
3690;DHT22;1861;50.240;8.596;2023-08-17T03:32:02;19.30;99.90
3690;DHT22;1861;50.240;8.596;2023-08-17T03:34:30;19.30;99.90
3690;DHT22;1861;50.240;8.596;2023-08-17T03:37:00;19.20;99.90
3690;DHT22;1861;50.240;8.596;2023-08-17T03:39:29;19.20;99.90
3690;DHT22;1861;50.240;8.596;2023-08-17T03:41:59;19.20;99.90
3690;DHT22;1861;50.240;8.596;2023-08-17T03:44:27;19.20;99.90
3690;DHT22;1861;50.240;8.596;2023-08-17T03:46:55;19.20;99.90
3690;DHT22;1861;50.240;8.596;2023-08-17T03:49:23;19.30;99.90
3690;DHT22;1861;50.240;8.596;2023-08-17T03:51:51;19.30;99.90
3690;DHT22;1861;50.240;8.596;2023-08-17T03:54:20;19.30;99.90
3690;DHT22;1861;50.240;8.596;2023-08-17T03:56:48;19.30;99.90
3690;DHT22;1861;50.240;8.596;2023-08-17T03:59:18;19.20;99.90
3690;DHT22;1861;50.240;8.596;2023-08-17T04:01:46;19.30;99.90
3690;DHT22;1861;50.240;8.596;2023-08-17T04:04:14;19.30;99.90
3690;DHT22;1861;50.240;8.596;2023-08-17T04:06:42;19.30;99.90
3690;DHT22;1861;50.240;8.596;2023-08-17T04:09:10;19.30;99.90
3690;DHT22;1861;50.240;8.596;2023-08-17T04:11:39;19.30;99.90
3690;DHT22;1861;50.240;8.596;2023-08-17T04:14:07;19.40;99.90
3690;DHT22;1861;50.240;8.596;2023-08-17T04:16:37;19.30;99.90
3690;DHT22;1861;50.240;8.596;2023-08-17T04:19:06;19.40;99.90
3690;DHT22;1861;50.240;8.596;2023-08-17T04:21:34;19.30;99.90
3690;DHT22;1861;50.240;8.596;2023-08-17T04:24:04;19.40;99.90
3690;DHT22;1861;50.240;8.596;2023-08-17T04:26:32;19.30;99.90
3690;DHT22;1861;50.240;8.596;2023-08-17T04:29:01;19.30;99.90
3690;DHT22;1861;50.240;8.596;2023-08-17T04:31:29;19.30;99.90
3690;DHT22;1861;50.240;8.596;2023-08-17T04:34:02;19.20;99.90
3690;DHT22;1861;50.240;8.596;2023-08-17T04:36:30;19.20;99.90
3690;DHT22;1861;50.240;8.596;2023-08-17T04:38:58;19.30;99.90
3690;DHT22;1861;50.240;8.596;2023-08-17T04:41:26;19.20;99.90
3690;DHT22;1861;50.240;8.596;2023-08-17T04:43:54;19.30;99.90
3690;DHT22;1861;50.240;8.596;2023-08-17T04:46:22;19.20;99.90
3690;DHT22;1861;50.240;8.596;2023-08-17T04:48:51;19.20;99.90
3690;DHT22;1861;50.240;8.596;2023-08-17T04:51:20;19.30;99.90
3690;DHT22;1861;50.240;8.596;2023-08-17T04:53:48;19.20;99.90
3690;DHT22;1861;50.240;8.596;2023-08-17T04:56:16;19.30;99.90
3690;DHT22;1861;50.240;8.596;2023-08-17T04:58:45;19.30;99.90
3690;DHT22;1861;50.240;8.596;2023-08-17T05:01:14;19.30;99.90
3690;DHT22;1861;50.240;8.596;2023-08-17T05:03:43;19.30;99.90
3690;DHT22;1861;50.240;8.596;2023-08-17T05:06:11;19.30;99.90
3690;DHT22;1861;50.240;8.596;2023-08-17T05:08:41;19.30;99.90
3690;DHT22;1861;50.240;8.596;2023-08-17T05:11:09;19.20;99.90
3690;DHT22;1861;50.240;8.596;2023-08-17T05:13:38;19.20;99.90
3690;DHT22;1861;50.240;8.596;2023-08-17T05:16:06;19.30;99.90
3690;DHT22;1861;50.240;8.596;2023-08-17T05:18:35;19.30;99.90
3690;DHT22;1861;50.240;8.596;2023-08-17T05:21:03;19.30;99.90
3690;DHT22;1861;50.240;8.596;2023-08-17T05:23:31;19.30;99.90
3690;DHT22;1861;50.240;8.596;2023-08-17T05:26:01;19.30;99.90
3690;DHT22;1861;50.240;8.596;2023-08-17T05:28:29;19.30;99.90
3690;DHT22;1861;50.240;8.596;2023-08-17T05:31:04;19.30;99.90
3690;DHT22;1861;50.240;8.596;2023-08-17T05:33:35;19.30;99.90
3690;DHT22;1861;50.240;8.596;2023-08-17T05:36:04;19.40;99.90
3690;DHT22;1861;50.240;8.596;2023-08-17T05:38:32;19.30;99.90
3690;DHT22;1861;50.240;8.596;2023-08-17T05:41:01;19.40;99.90
3690;DHT22;1861;50.240;8.596;2023-08-17T05:43:30;19.40;99.90
3690;DHT22;1861;50.240;8.596;2023-08-17T05:45:58;19.40;99.90
3690;DHT22;1861;50.240;8.596;2023-08-17T05:48:27;19.40;99.90
3690;DHT22;1861;50.240;8.596;2023-08-17T05:50:55;19.40;99.90
3690;DHT22;1861;50.240;8.596;2023-08-17T05:53:23;19.40;99.90
3690;DHT22;1861;50.240;8.596;2023-08-17T05:55:51;19.40;99.90
3690;DHT22;1861;50.240;8.596;2023-08-17T05:58:21;19.40;99.90
3690;DHT22;1861;50.240;8.596;2023-08-17T06:00:49;19.50;99.90
3690;DHT22;1861;50.240;8.596;2023-08-17T06:03:18;19.50;99.90
3690;DHT22;1861;50.240;8.596;2023-08-17T06:05:46;19.50;99.90
3690;DHT22;1861;50.240;8.596;2023-08-17T06:08:14;19.50;99.90
3690;DHT22;1861;50.240;8.596;2023-08-17T06:10:42;19.50;99.90
3690;DHT22;1861;50.240;8.596;2023-08-17T06:13:10;19.50;99.90
3690;DHT22;1861;50.240;8.596;2023-08-17T06:15:39;19.50;99.90
3690;DHT22;1861;50.240;8.596;2023-08-17T06:18:08;19.50;99.90
3690;DHT22;1861;50.240;8.596;2023-08-17T06:20:36;19.50;99.90
3690;DHT22;1861;50.240;8.596;2023-08-17T06:23:04;19.60;99.90
3690;DHT22;1861;50.240;8.596;2023-08-17T06:25:32;19.60;99.90
3690;DHT22;1861;50.240;8.596;2023-08-17T06:28:01;19.60;99.90
3690;DHT22;1861;50.240;8.596;2023-08-17T06:30:29;19.60;99.90
3690;DHT22;1861;50.240;8.596;2023-08-17T06:32:58;19.60;99.90
3690;DHT22;1861;50.240;8.596;2023-08-17T06:35:27;19.60;99.90
3690;DHT22;1861;50.240;8.596;2023-08-17T06:37:55;19.70;99.90
3690;DHT22;1861;50.240;8.596;2023-08-17T06:40:24;19.70;99.90
3690;DHT22;1861;50.240;8.596;2023-08-17T06:42:53;19.70;99.90
3690;DHT22;1861;50.240;8.596;2023-08-17T06:45:21;19.80;99.90
3690;DHT22;1861;50.240;8.596;2023-08-17T06:47:49;19.80;99.90
3690;DHT22;1861;50.240;8.596;2023-08-17T06:50:19;19.80;99.90
3690;DHT22;1861;50.240;8.596;2023-08-17T06:52:47;19.80;99.90
3690;DHT22;1861;50.240;8.596;2023-08-17T06:55:15;19.80;99.90
3690;DHT22;1861;50.240;8.596;2023-08-17T06:57:44;19.80;99.90
3690;DHT22;1861;50.240;8.596;2023-08-17T07:00:15;19.80;99.90
3690;DHT22;1861;50.240;8.596;2023-08-17T07:02:47;19.80;99.90
3690;DHT22;1861;50.240;8.596;2023-08-17T07:05:24;19.80;99.90
3690;DHT22;1861;50.240;8.596;2023-08-17T07:07:52;19.90;99.90
3690;DHT22;1861;50.240;8.596;2023-08-17T07:10:20;19.90;99.90
3690;DHT22;1861;50.240;8.596;2023-08-17T07:12:49;19.90;99.90
3690;DHT22;1861;50.240;8.596;2023-08-17T07:15:17;19.90;99.90
3690;DHT22;1861;50.240;8.596;2023-08-17T07:17:45;19.90;99.90
3690;DHT22;1861;50.240;8.596;2023-08-17T07:20:13;19.90;99.90
3690;DHT22;1861;50.240;8.596;2023-08-17T07:22:44;20.00;99.90
3690;DHT22;1861;50.240;8.596;2023-08-17T07:25:12;20.00;99.90
3690;DHT22;1861;50.240;8.596;2023-08-17T07:27:41;20.00;99.90
3690;DHT22;1861;50.240;8.596;2023-08-17T07:30:10;20.10;99.90
3690;DHT22;1861;50.240;8.596;2023-08-17T07:32:39;20.10;99.90
3690;DHT22;1861;50.240;8.596;2023-08-17T07:35:07;20.10;99.90
3690;DHT22;1861;50.240;8.596;2023-08-17T07:37:36;20.10;99.90
3690;DHT22;1861;50.240;8.596;2023-08-17T07:40:06;20.10;99.90
3690;DHT22;1861;50.240;8.596;2023-08-17T07:42:36;20.10;99.90
3690;DHT22;1861;50.240;8.596;2023-08-17T07:45:05;20.10;99.90
3690;DHT22;1861;50.240;8.596;2023-08-17T07:47:34;20.10;99.90
3690;DHT22;1861;50.240;8.596;2023-08-17T07:50:04;20.10;99.90
3690;DHT22;1861;50.240;8.596;2023-08-17T07:52:32;20.10;99.90
3690;DHT22;1861;50.240;8.596;2023-08-17T07:55:00;20.10;99.90
3690;DHT22;1861;50.240;8.596;2023-08-17T07:57:30;20.10;99.90
3690;DHT22;1861;50.240;8.596;2023-08-17T07:59:58;20.10;99.90
3690;DHT22;1861;50.240;8.596;2023-08-17T08:02:26;20.00;99.90
3690;DHT22;1861;50.240;8.596;2023-08-17T08:04:54;20.10;99.90
3690;DHT22;1861;50.240;8.596;2023-08-17T08:07:22;20.20;99.90
3690;DHT22;1861;50.240;8.596;2023-08-17T08:09:51;20.20;99.90
3690;DHT22;1861;50.240;8.596;2023-08-17T08:12:19;20.20;99.90
3690;DHT22;1861;50.240;8.596;2023-08-17T08:14:49;20.30;99.90
3690;DHT22;1861;50.240;8.596;2023-08-17T08:17:18;20.20;99.90
3690;DHT22;1861;50.240;8.596;2023-08-17T08:19:46;20.30;99.90
3690;DHT22;1861;50.240;8.596;2023-08-17T08:22:15;20.30;99.90
3690;DHT22;1861;50.240;8.596;2023-08-17T08:24:43;20.30;99.90
3690;DHT22;1861;50.240;8.596;2023-08-17T08:27:11;20.30;99.90
3690;DHT22;1861;50.240;8.596;2023-08-17T08:29:39;20.30;99.90
3690;DHT22;1861;50.240;8.596;2023-08-17T08:32:09;20.30;99.90
3690;DHT22;1861;50.240;8.596;2023-08-17T08:34:37;20.40;99.90
3690;DHT22;1861;50.240;8.596;2023-08-17T08:37:05;20.30;99.90
3690;DHT22;1861;50.240;8.596;2023-08-17T08:39:48;20.30;99.90
3690;DHT22;1861;50.240;8.596;2023-08-17T08:42:16;20.40;99.90
3690;DHT22;1861;50.240;8.596;2023-08-17T08:44:45;20.40;99.90
3690;DHT22;1861;50.240;8.596;2023-08-17T08:47:16;20.40;99.90
3690;DHT22;1861;50.240;8.596;2023-08-17T08:49:50;20.40;99.90
3690;DHT22;1861;50.240;8.596;2023-08-17T08:52:23;20.40;99.90
3690;DHT22;1861;50.240;8.596;2023-08-17T08:54:54;20.40;99.90
3690;DHT22;1861;50.240;8.596;2023-08-17T08:57:28;20.40;99.90
3690;DHT22;1861;50.240;8.596;2023-08-17T08:59:57;20.40;99.90
3690;DHT22;1861;50.240;8.596;2023-08-17T09:02:28;20.40;99.90
3690;DHT22;1861;50.240;8.596;2023-08-17T09:04:59;20.40;99.90
3690;DHT22;1861;50.240;8.596;2023-08-17T09:07:29;20.40;99.90
3690;DHT22;1861;50.240;8.596;2023-08-17T09:09:57;20.40;99.90
3690;DHT22;1861;50.240;8.596;2023-08-17T09:12:25;20.50;99.90
3690;DHT22;1861;50.240;8.596;2023-08-17T09:15:06;20.50;99.90
3690;DHT22;1861;50.240;8.596;2023-08-17T09:17:36;20.50;99.90
3690;DHT22;1861;50.240;8.596;2023-08-17T09:20:06;20.50;99.90
3690;DHT22;1861;50.240;8.596;2023-08-17T09:22:39;20.60;99.90
3690;DHT22;1861;50.240;8.596;2023-08-17T09:25:08;20.50;99.90
3690;DHT22;1861;50.240;8.596;2023-08-17T09:27:37;20.50;99.90
3690;DHT22;1861;50.240;8.596;2023-08-17T09:30:08;20.50;99.90
3690;DHT22;1861;50.240;8.596;2023-08-17T09:32:37;20.60;99.90
3690;DHT22;1861;50.240;8.596;2023-08-17T09:35:06;20.60;99.90
3690;DHT22;1861;50.240;8.596;2023-08-17T09:37:35;20.60;99.90
3690;DHT22;1861;50.240;8.596;2023-08-17T09:40:03;20.60;99.90
3690;DHT22;1861;50.240;8.596;2023-08-17T09:42:34;20.60;99.90
3690;DHT22;1861;50.240;8.596;2023-08-17T09:45:03;20.70;99.90
3690;DHT22;1861;50.240;8.596;2023-08-17T09:47:32;20.60;99.90
3690;DHT22;1861;50.240;8.596;2023-08-17T09:50:05;20.70;99.90
3690;DHT22;1861;50.240;8.596;2023-08-17T09:52:38;20.70;99.90
3690;DHT22;1861;50.240;8.596;2023-08-17T09:55:07;20.70;99.90
3690;DHT22;1861;50.240;8.596;2023-08-17T09:57:37;20.70;99.90
3690;DHT22;1861;50.240;8.596;2023-08-17T10:00:07;20.70;99.90
3690;DHT22;1861;50.240;8.596;2023-08-17T10:02:36;20.80;99.90
3690;DHT22;1861;50.240;8.596;2023-08-17T10:05:11;20.80;99.90
3690;DHT22;1861;50.240;8.596;2023-08-17T10:07:43;20.70;99.90
3690;DHT22;1861;50.240;8.596;2023-08-17T10:10:12;20.80;99.90
3690;DHT22;1861;50.240;8.596;2023-08-17T10:12:45;20.80;99.90
3690;DHT22;1861;50.240;8.596;2023-08-17T10:15:15;20.80;99.90
3690;DHT22;1861;50.240;8.596;2023-08-17T10:17:55;20.80;99.90
3690;DHT22;1861;50.240;8.596;2023-08-17T10:20:27;20.90;99.90
3690;DHT22;1861;50.240;8.596;2023-08-17T10:23:00;20.90;99.90
3690;DHT22;1861;50.240;8.596;2023-08-17T10:25:30;21.00;99.90
3690;DHT22;1861;50.240;8.596;2023-08-17T10:27:59;20.90;99.90
3690;DHT22;1861;50.240;8.596;2023-08-17T10:30:30;20.90;99.90
3690;DHT22;1861;50.240;8.596;2023-08-17T10:32:59;21.00;99.90
3690;DHT22;1861;50.240;8.596;2023-08-17T10:35:29;21.00;99.90
3690;DHT22;1861;50.240;8.596;2023-08-17T10:37:58;21.00;99.90
3690;DHT22;1861;50.240;8.596;2023-08-17T10:40:27;21.00;99.90
3690;DHT22;1861;50.240;8.596;2023-08-17T10:42:56;21.00;99.90
3690;DHT22;1861;50.240;8.596;2023-08-17T10:45:28;21.00;99.90
3690;DHT22;1861;50.240;8.596;2023-08-17T10:48:26;21.10;99.90
3690;DHT22;1861;50.240;8.596;2023-08-17T10:51:01;21.10;99.90
3690;DHT22;1861;50.240;8.596;2023-08-17T10:53:37;21.20;99.90
3690;DHT22;1861;50.240;8.596;2023-08-17T10:56:13;21.20;99.90
3690;DHT22;1861;50.240;8.596;2023-08-17T10:58:43;21.20;99.90
3690;DHT22;1861;50.240;8.596;2023-08-17T11:01:11;21.30;99.90
3690;DHT22;1861;50.240;8.596;2023-08-17T11:03:41;21.30;99.90
3690;DHT22;1861;50.240;8.596;2023-08-17T11:06:16;21.30;99.90
3690;DHT22;1861;50.240;8.596;2023-08-17T11:08:52;21.40;99.90
3690;DHT22;1861;50.240;8.596;2023-08-17T11:11:22;21.40;99.90
3690;DHT22;1861;50.240;8.596;2023-08-17T11:13:52;21.50;99.90
3690;DHT22;1861;50.240;8.596;2023-08-17T11:16:23;21.50;99.90
3690;DHT22;1861;50.240;8.596;2023-08-17T11:18:52;21.60;99.90
3690;DHT22;1861;50.240;8.596;2023-08-17T11:21:24;21.60;99.90
3690;DHT22;1861;50.240;8.596;2023-08-17T11:23:55;21.60;99.90
3690;DHT22;1861;50.240;8.596;2023-08-17T11:26:23;21.60;99.90
3690;DHT22;1861;50.240;8.596;2023-08-17T11:28:52;21.70;99.90
3690;DHT22;1861;50.240;8.596;2023-08-17T11:31:20;21.70;99.90
3690;DHT22;1861;50.240;8.596;2023-08-17T11:33:48;21.70;99.90
3690;DHT22;1861;50.240;8.596;2023-08-17T11:36:21;21.80;99.90
3690;DHT22;1861;50.240;8.596;2023-08-17T11:38:52;21.70;99.90
3690;DHT22;1861;50.240;8.596;2023-08-17T11:41:21;21.60;99.90
3690;DHT22;1861;50.240;8.596;2023-08-17T11:43:49;21.70;99.90
3690;DHT22;1861;50.240;8.596;2023-08-17T11:46:18;21.80;99.90
3690;DHT22;1861;50.240;8.596;2023-08-17T11:48:46;21.90;99.90
3690;DHT22;1861;50.240;8.596;2023-08-17T11:51:15;21.90;99.90
3690;DHT22;1861;50.240;8.596;2023-08-17T11:53:48;22.00;99.90
3690;DHT22;1861;50.240;8.596;2023-08-17T11:56:17;22.10;99.90
3690;DHT22;1861;50.240;8.596;2023-08-17T11:58:46;22.10;99.90
3690;DHT22;1861;50.240;8.596;2023-08-17T12:01:15;22.10;99.90
3690;DHT22;1861;50.240;8.596;2023-08-17T12:03:44;22.10;99.90
3690;DHT22;1861;50.240;8.596;2023-08-17T12:06:13;22.10;99.90
3690;DHT22;1861;50.240;8.596;2023-08-17T12:08:44;22.20;99.90
3690;DHT22;1861;50.240;8.596;2023-08-17T12:11:15;22.20;99.90
3690;DHT22;1861;50.240;8.596;2023-08-17T12:13:48;22.10;99.90
3690;DHT22;1861;50.240;8.596;2023-08-17T12:16:17;22.20;99.90
3690;DHT22;1861;50.240;8.596;2023-08-17T12:18:47;22.10;99.90
3690;DHT22;1861;50.240;8.596;2023-08-17T12:21:15;22.00;99.90
3690;DHT22;1861;50.240;8.596;2023-08-17T12:23:44;22.00;99.90
3690;DHT22;1861;50.240;8.596;2023-08-17T12:26:18;22.00;99.90
3690;DHT22;1861;50.240;8.596;2023-08-17T12:28:49;22.00;99.90
3690;DHT22;1861;50.240;8.596;2023-08-17T12:31:21;22.10;99.90
3690;DHT22;1861;50.240;8.596;2023-08-17T12:33:51;22.00;99.90
3690;DHT22;1861;50.240;8.596;2023-08-17T12:36:19;22.00;99.90
3690;DHT22;1861;50.240;8.596;2023-08-17T12:38:49;22.00;99.90
3690;DHT22;1861;50.240;8.596;2023-08-17T12:41:18;22.00;99.90
3690;DHT22;1861;50.240;8.596;2023-08-17T12:43:47;22.10;99.90
3690;DHT22;1861;50.240;8.596;2023-08-17T12:46:16;22.10;99.90
3690;DHT22;1861;50.240;8.596;2023-08-17T12:48:44;22.10;99.90
3690;DHT22;1861;50.240;8.596;2023-08-17T12:51:12;22.10;99.90
3690;DHT22;1861;50.240;8.596;2023-08-17T12:53:41;22.10;99.90
3690;DHT22;1861;50.240;8.596;2023-08-17T12:56:15;22.20;99.90
3690;DHT22;1861;50.240;8.596;2023-08-17T12:58:43;22.10;99.90
3690;DHT22;1861;50.240;8.596;2023-08-17T13:01:12;22.10;99.90
3690;DHT22;1861;50.240;8.596;2023-08-17T13:03:41;22.10;99.90
3690;DHT22;1861;50.240;8.596;2023-08-17T13:06:09;22.10;99.90
3690;DHT22;1861;50.240;8.596;2023-08-17T13:08:40;22.10;99.90
3690;DHT22;1861;50.240;8.596;2023-08-17T13:11:10;22.10;99.90
3690;DHT22;1861;50.240;8.596;2023-08-17T13:13:38;22.10;99.90
3690;DHT22;1861;50.240;8.596;2023-08-17T13:16:06;22.10;99.90
3690;DHT22;1861;50.240;8.596;2023-08-17T13:18:35;22.00;99.90
3690;DHT22;1861;50.240;8.596;2023-08-17T13:21:04;22.00;99.90
3690;DHT22;1861;50.240;8.596;2023-08-17T13:23:32;22.00;99.90
3690;DHT22;1861;50.240;8.596;2023-08-17T13:26:00;21.90;99.90
3690;DHT22;1861;50.240;8.596;2023-08-17T13:28:28;21.90;99.90
3690;DHT22;1861;50.240;8.596;2023-08-17T13:30:56;21.90;99.90
3690;DHT22;1861;50.240;8.596;2023-08-17T13:33:45;21.90;99.90
3690;DHT22;1861;50.240;8.596;2023-08-17T13:36:13;22.00;99.90
3690;DHT22;1861;50.240;8.596;2023-08-17T13:38:41;21.90;99.90
3690;DHT22;1861;50.240;8.596;2023-08-17T13:41:11;21.90;99.90
3690;DHT22;1861;50.240;8.596;2023-08-17T13:43:39;21.90;99.90
3690;DHT22;1861;50.240;8.596;2023-08-17T13:46:07;21.90;99.90
3690;DHT22;1861;50.240;8.596;2023-08-17T13:48:36;21.90;99.90
3690;DHT22;1861;50.240;8.596;2023-08-17T13:51:07;21.90;99.90
3690;DHT22;1861;50.240;8.596;2023-08-17T13:53:35;21.90;99.90
3690;DHT22;1861;50.240;8.596;2023-08-17T13:56:03;21.90;99.90
3690;DHT22;1861;50.240;8.596;2023-08-17T13:58:32;21.90;99.90
3690;DHT22;1861;50.240;8.596;2023-08-17T14:01:00;21.90;99.90
3690;DHT22;1861;50.240;8.596;2023-08-17T14:03:28;21.80;99.90
3690;DHT22;1861;50.240;8.596;2023-08-17T14:05:57;21.80;99.90
3690;DHT22;1861;50.240;8.596;2023-08-17T14:08:27;21.80;99.90
3690;DHT22;1861;50.240;8.596;2023-08-17T14:10:55;21.80;99.90
3690;DHT22;1861;50.240;8.596;2023-08-17T14:13:23;21.80;99.90
3690;DHT22;1861;50.240;8.596;2023-08-17T14:15:51;21.80;99.90
3690;DHT22;1861;50.240;8.596;2023-08-17T14:18:23;21.80;99.90
3690;DHT22;1861;50.240;8.596;2023-08-17T14:20:51;21.80;99.90
3690;DHT22;1861;50.240;8.596;2023-08-17T14:23:19;21.80;99.90
3690;DHT22;1861;50.240;8.596;2023-08-17T14:25:48;21.80;99.90
3690;DHT22;1861;50.240;8.596;2023-08-17T14:28:18;21.80;99.90
3690;DHT22;1861;50.240;8.596;2023-08-17T14:30:47;21.90;99.90
3690;DHT22;1861;50.240;8.596;2023-08-17T14:33:18;21.80;99.90
3690;DHT22;1861;50.240;8.596;2023-08-17T14:35:46;21.80;99.90
3690;DHT22;1861;50.240;8.596;2023-08-17T14:38:14;21.80;99.90
3690;DHT22;1861;50.240;8.596;2023-08-17T14:40:43;21.80;99.90
3690;DHT22;1861;50.240;8.596;2023-08-17T14:43:13;21.80;99.90
3690;DHT22;1861;50.240;8.596;2023-08-17T14:45:42;21.80;99.90
3690;DHT22;1861;50.240;8.596;2023-08-17T14:48:10;21.80;99.90
3690;DHT22;1861;50.240;8.596;2023-08-17T14:50:38;21.80;99.90
3690;DHT22;1861;50.240;8.596;2023-08-17T14:53:06;21.80;99.90
3690;DHT22;1861;50.240;8.596;2023-08-17T14:55:34;21.90;99.90
3690;DHT22;1861;50.240;8.596;2023-08-17T14:58:03;21.80;99.90
3690;DHT22;1861;50.240;8.596;2023-08-17T15:00:33;21.80;99.90
3690;DHT22;1861;50.240;8.596;2023-08-17T15:03:01;21.80;99.90
3690;DHT22;1861;50.240;8.596;2023-08-17T15:05:30;21.90;99.90
3690;DHT22;1861;50.240;8.596;2023-08-17T15:07:58;21.90;99.90
3690;DHT22;1861;50.240;8.596;2023-08-17T15:10:26;21.90;99.90
3690;DHT22;1861;50.240;8.596;2023-08-17T15:12:54;21.80;99.90
3690;DHT22;1861;50.240;8.596;2023-08-17T15:15:32;21.90;99.90
3690;DHT22;1861;50.240;8.596;2023-08-17T15:18:01;21.90;99.90
3690;DHT22;1861;50.240;8.596;2023-08-17T15:20:32;21.90;99.90
3690;DHT22;1861;50.240;8.596;2023-08-17T15:23:00;21.90;99.90
3690;DHT22;1861;50.240;8.596;2023-08-17T15:25:28;21.90;99.90
3690;DHT22;1861;50.240;8.596;2023-08-17T15:27:56;21.90;99.90
3690;DHT22;1861;50.240;8.596;2023-08-17T15:30:24;21.90;99.90
3690;DHT22;1861;50.240;8.596;2023-08-17T15:32:54;21.90;99.90
3690;DHT22;1861;50.240;8.596;2023-08-17T15:35:22;21.90;99.90
3690;DHT22;1861;50.240;8.596;2023-08-17T15:37:50;21.80;99.90
3690;DHT22;1861;50.240;8.596;2023-08-17T15:40:18;21.80;99.90
3690;DHT22;1861;50.240;8.596;2023-08-17T15:42:46;21.90;99.90
3690;DHT22;1861;50.240;8.596;2023-08-17T15:45:15;21.90;99.90
3690;DHT22;1861;50.240;8.596;2023-08-17T15:47:44;21.90;99.90
3690;DHT22;1861;50.240;8.596;2023-08-17T15:50:14;21.90;99.90
3690;DHT22;1861;50.240;8.596;2023-08-17T15:52:42;21.90;99.90
3690;DHT22;1861;50.240;8.596;2023-08-17T15:55:10;21.90;99.90
3690;DHT22;1861;50.240;8.596;2023-08-17T15:57:38;21.90;99.90
3690;DHT22;1861;50.240;8.596;2023-08-17T16:00:08;21.90;99.90
3690;DHT22;1861;50.240;8.596;2023-08-17T16:02:36;21.90;99.90
3690;DHT22;1861;50.240;8.596;2023-08-17T16:05:05;21.90;99.90
3690;DHT22;1861;50.240;8.596;2023-08-17T16:07:34;21.90;99.90
3690;DHT22;1861;50.240;8.596;2023-08-17T16:10:03;21.90;99.90
3690;DHT22;1861;50.240;8.596;2023-08-17T16:12:32;21.90;99.90
3690;DHT22;1861;50.240;8.596;2023-08-17T16:15:00;21.90;99.90